Time;durP1;ratioP1;P1;durP2;ratioP2;P2;SDS_P1;SDS_P2;PMS_P1;PMS_P2;Temp;Humidity;BMP_temperature;BMP_pressure;BME280_temperature;BME280_humidity;BME280_pressure;Samples;Min_cycle;Max_cycle;Signal;HPM_P1;HPM_P2
2022/01/31 00:02:25;;;;;;;28.40;10.55;;;;;;;3.32;98.02;101412.81;5090603;28;20471;-71
2022/01/31 00:04:50;;;;;;;29.95;10.70;;;;;;;3.34;97.69;101371.06;5091371;28;20070;-71
2022/01/31 00:07:15;;;;;;;29.95;10.90;;;;;;;3.31;98.14;101374.44;5088946;28;20423;-72
2022/01/31 00:09:43;;;;;;;31.50;11.02;;;;;;;3.27;98.80;101346.38;5086018;28;20082;-71
2022/01/31 00:12:12;;;;;;;30.27;10.82;;;;;;;3.35;98.26;101337.16;5090651;28;20044;-71
2022/01/31 00:14:43;;;;;;;30.00;10.43;;;;;;;3.38;98.19;101334.66;5089607;28;20085;-71
2022/01/31 00:17:10;;;;;;;30.30;10.40;;;;;;;3.42;98.07;101336.56;5090508;28;20455;-70
2022/01/31 00:19:37;;;;;;;27.83;10.40;;;;;;;3.44;97.97;101339.25;5094328;28;20379;-72
2022/01/31 00:22:05;;;;;;;28.80;10.05;;;;;;;3.51;97.78;101316.84;5093448;28;20020;-71
2022/01/31 00:24:31;;;;;;;30.00;9.90;;;;;;;3.45;98.65;101313.16;5094631;28;20028;-71
2022/01/31 00:26:56;;;;;;;27.80;9.73;;;;;;;3.42;99.46;101304.28;5094009;28;20028;-72
2022/01/31 00:29:22;;;;;;;30.10;10.00;;;;;;;3.40;100.00;101296.38;5095097;28;20409;-71
2022/01/31 00:31:47;;;;;;;29.23;10.18;;;;;;;3.38;100.00;101282.38;5091592;28;20646;-71
2022/01/31 00:34:13;;;;;;;28.40;10.30;;;;;;;3.44;100.00;101274.78;5092603;28;20085;-72
2022/01/31 00:36:38;;;;;;;30.02;10.30;;;;;;;3.39;100.00;101268.47;5093067;28;20047;-71
2022/01/31 00:39:05;;;;;;;29.42;10.07;;;;;;;3.42;100.00;101254.63;5093629;28;20024;-71
2022/01/31 00:41:30;;;;;;;31.95;10.80;;;;;;;3.30;100.00;101234.13;5094714;28;20024;-71
2022/01/31 00:44:14;;;;;;;31.13;10.90;;;;;;;3.18;100.00;101223.19;5094873;28;20020;-71
2022/01/31 00:46:43;;;;;;;30.75;11.00;;;;;;;3.00;100.00;101205.03;5093196;28;20028;-71
2022/01/31 00:49:16;;;;;;;29.30;10.73;;;;;;;2.90;100.00;101198.56;5094133;28;20031;-71
2022/01/31 00:51:41;;;;;;;;;;;;;;;2.99;100.00;101188.47;5094685;28;20372;-71
2022/01/31 00:54:07;;;;;;;29.77;10.65;;;;;;;2.88;100.00;101174.09;5094427;28;19919;-71
2022/01/31 00:56:32;;;;;;;35.10;11.55;;;;;;;2.80;100.00;101168.56;5093856;28;20402;-72
2022/01/31 00:58:58;;;;;;;34.75;11.85;;;;;;;2.79;100.00;101170.25;5093712;28;20016;-72
2022/01/31 01:01:23;;;;;;;33.40;12.27;;;;;;;2.76;100.00;101149.25;5094518;28;20526;-72
2022/01/31 01:03:48;;;;;;;32.42;12.43;;;;;;;2.67;100.00;101121.91;5093763;28;20475;-71
2022/01/31 01:06:14;;;;;;;29.25;11.10;;;;;;;2.73;100.00;101135.19;5094031;28;20055;-71
2022/01/31 01:08:39;;;;;;;32.70;12.00;;;;;;;2.78;100.00;101133.63;5093512;28;20035;-72
2022/01/31 01:11:05;;;;;;;32.03;12.27;;;;;;;2.69;100.00;101125.44;5093856;28;20012;-72
2022/01/31 01:13:30;;;;;;;30.70;11.90;;;;;;;2.67;100.00;101112.31;5093740;28;20046;-72
2022/01/31 01:15:56;;;;;;;32.50;12.82;;;;;;;2.69;100.00;101100.22;5093789;28;20032;-75
2022/01/31 01:18:21;;;;;;;32.85;12.40;;;;;;;2.73;100.00;101085.59;5093234;28;20032;-72
2022/01/31 01:20:46;;;;;;;38.63;13.82;;;;;;;2.72;100.00;101078.56;5094188;28;20039;-71
2022/01/31 01:23:12;;;;;;;36.90;14.48;;;;;;;2.61;100.00;101071.19;5093740;28;20383;-70
2022/01/31 01:25:37;;;;;;;35.40;14.73;;;;;;;2.64;100.00;101056.50;5093551;28;20164;-71
2022/01/31 01:28:03;;;;;;;39.35;15.25;;;;;;;2.61;100.00;101050.31;5091680;28;20032;-72
2022/01/31 01:30:28;;;;;;;39.13;15.82;;;;;;;2.66;100.00;101049.63;5093008;28;20451;-71
2022/01/31 01:35:22;;;;;;;40.85;15.98;;;;;;;2.70;100.00;101028.91;5093436;28;20040;-71
2022/01/31 01:37:47;;;;;;;38.83;15.77;;;;;;;2.72;100.00;101023.75;5092889;28;20470;-71
2022/01/31 01:40:13;;;;;;;43.80;17.90;;;;;;;2.69;100.00;101021.91;5092888;28;20028;-71
2022/01/31 01:42:40;;;;;;;42.70;16.63;;;;;;;2.75;100.00;101001.28;5093806;28;20451;-71
2022/01/31 01:45:06;;;;;;;45.75;18.05;;;;;;;2.72;100.00;100998.53;5093326;28;20031;-72
2022/01/31 01:47:31;;;;;;;41.15;17.50;;;;;;;2.72;100.00;101000.25;5093069;28;20032;-72
2022/01/31 01:49:57;;;;;;;43.28;18.60;;;;;;;2.71;100.00;100978.47;5093222;28;20145;-72
2022/01/31 01:52:23;;;;;;;44.53;18.27;;;;;;;2.76;100.00;100958.66;5092698;28;20437;-71
2022/01/31 01:54:48;;;;;;;43.72;19.02;;;;;;;2.75;100.00;100943.84;5092578;28;20130;-72
2022/01/31 01:57:15;;;;;;;42.00;17.10;;;;;;;2.81;100.00;100937.03;5092531;28;20122;-71
2022/01/31 01:59:41;;;;;;;43.67;18.65;;;;;;;2.88;100.00;100931.22;5092940;28;20465;-71
2022/01/31 02:02:07;;;;;;;40.08;17.63;;;;;;;2.88;100.00;100912.94;5093059;28;20048;-77
2022/01/31 02:04:33;;;;;;;40.80;18.08;;;;;;;2.89;100.00;100909.50;5092729;28;20035;-73
2022/01/31 02:06:59;;;;;;;36.38;16.63;;;;;;;2.94;100.00;100902.72;5092512;28;20394;-72
2022/01/31 02:09:27;;;;;;;36.75;17.13;;;;;;;2.93;100.00;100901.84;5092772;28;20126;-72
2022/01/31 02:11:54;;;;;;;41.83;18.80;;;;;;;2.94;100.00;100893.19;5092914;28;20493;-72
2022/01/31 02:14:24;;;;;;;39.20;17.08;;;;;;;2.99;100.00;100892.47;5092360;28;20093;-72
2022/01/31 02:16:50;;;;;;;37.42;17.40;;;;;;;2.97;100.00;100895.88;5091053;28;20612;-72
2022/01/31 02:19:21;;;;;;;41.92;18.75;;;;;;;2.96;100.00;100886.28;5092438;28;20032;-72
2022/01/31 02:21:52;;;;;;;37.35;17.65;;;;;;;2.97;100.00;100867.16;5091437;28;20470;-72
2022/01/31 02:24:18;;;;;;;35.85;16.63;;;;;;;3.06;100.00;100855.25;5092633;28;20052;-73
2022/01/31 02:26:43;;;;;;;37.15;17.98;;;;;;;3.07;100.00;100862.25;5090910;28;20434;-72
2022/01/31 02:29:11;;;;;;;39.97;18.23;;;;;;;3.07;100.00;100888.38;5089852;28;20032;-72
2022/01/31 02:31:42;;;;;;;37.92;19.10;;;;;;;3.12;100.00;100892.06;5092413;28;20471;-72
2022/01/31 02:34:07;;;;;;;40.40;20.48;;;;;;;3.20;100.00;100900.16;5089836;28;20082;-72
2022/01/31 02:36:32;;;;;;;43.97;21.00;;;;;;;3.22;100.00;100877.56;5092319;28;20031;-73
2022/01/31 02:38:58;;;;;;;42.30;23.20;;;;;;;3.24;100.00;100876.78;5090443;28;20036;-73
2022/01/31 02:41:23;;;;;;;42.85;23.67;;;;;;;3.26;100.00;100867.31;5091624;28;20020;-72
2022/01/31 02:43:52;;;;;;;47.42;24.20;;;;;;;3.29;100.00;100848.19;5091980;28;20024;-72
2022/01/31 02:46:18;;;;;;;42.70;22.63;;;;;;;3.30;100.00;100849.97;5092163;28;20055;-72
2022/01/31 02:48:43;;;;;;;44.67;25.23;;;;;;;3.34;100.00;100844.03;5089718;28;20082;-73
2022/01/31 02:51:10;;;;;;;43.78;25.58;;;;;;;3.39;100.00;100837.22;5091938;28;20459;-72
2022/01/31 02:53:41;;;;;;;44.22;23.77;;;;;;;3.45;100.00;100858.34;5091528;28;20038;-73
2022/01/31 02:56:08;;;;;;;42.72;24.38;;;;;;;3.50;100.00;100827.13;5089941;28;20441;-73
2022/01/31 02:58:33;;;;;;;42.72;21.92;;;;;;;3.56;100.00;100839.53;5091424;28;20042;-73
2022/01/31 03:01:00;;;;;;;39.72;22.05;;;;;;;3.60;100.00;100828.34;5090683;28;20022;-73
2022/01/31 03:03:25;;;;;;;39.60;22.80;;;;;;;3.61;100.00;100809.19;5091887;28;20420;-72
2022/01/31 03:05:52;;;;;;;43.03;23.40;;;;;;;3.71;100.00;100810.38;5091304;28;20043;-72
2022/01/31 03:08:17;;;;;;;42.35;21.23;;;;;;;3.72;100.00;100807.78;5091414;28;20069;-71
2022/01/31 03:10:43;;;;;;;38.08;18.70;;;;;;;3.86;100.00;100802.09;5091741;28;20103;-71
2022/01/31 03:13:09;;;;;;;38.92;19.05;;;;;;;3.95;100.00;100820.72;5091267;28;20090;-72
2022/01/31 03:15:34;;;;;;;38.15;19.00;;;;;;;3.96;100.00;100815.53;5091452;28;20048;-73
2022/01/31 03:18:00;;;;;;;35.75;18.67;;;;;;;4.08;100.00;100806.25;5091403;28;20066;-72
2022/01/31 03:20:25;;;;;;;32.15;13.32;;;;;;;4.08;100.00;100798.41;5091429;28;20055;-71
2022/01/31 03:22:51;;;;;;;35.92;16.27;;;;;;;4.12;100.00;100806.41;5091308;28;20479;-70
2022/01/31 03:25:17;;;;;;;34.22;14.82;;;;;;;4.15;100.00;100788.19;5089847;28;20043;-71
2022/01/31 03:27:44;;;;;;;34.65;13.77;;;;;;;4.22;100.00;100793.59;5089688;28;20020;-71
2022/01/31 03:30:14;;;;;;;33.05;12.77;;;;;;;4.24;100.00;100798.03;5091637;28;20020;-71
2022/01/31 03:32:39;;;;;;;32.92;12.07;;;;;;;4.26;100.00;100801.56;5091466;28;20081;-71
2022/01/31 03:35:07;;;;;;;30.02;10.63;;;;;;;4.23;100.00;100785.78;5091417;28;20406;-71
2022/01/31 03:37:32;;;;;;;32.78;11.10;;;;;;;4.23;100.00;100779.69;5091148;28;20061;-70
2022/01/31 03:39:58;;;;;;;30.92;9.70;;;;;;;4.22;100.00;100763.06;5091428;28;20024;-71
2022/01/31 03:42:23;;;;;;;30.52;8.90;;;;;;;4.29;100.00;100772.00;5091368;28;20024;-71
2022/01/31 03:44:49;;;;;;;32.20;9.85;;;;;;;4.28;100.00;100764.97;5091208;28;20108;-71
2022/01/31 03:47:16;;;;;;;31.77;9.20;;;;;;;4.33;100.00;100766.00;5090888;28;20517;-70
2022/01/31 03:49:41;;;;;;;30.98;8.80;;;;;;;4.30;100.00;100750.22;5091441;28;20024;-70
2022/01/31 03:52:07;;;;;;;33.17;8.60;;;;;;;4.32;100.00;100749.41;5090680;28;20016;-71
2022/01/31 03:54:32;;;;;;;28.45;7.35;;;;;;;4.41;100.00;100764.47;5095336;28;20031;-70
2022/01/31 03:56:58;;;;;;;29.70;6.82;;;;;;;4.44;100.00;100756.75;5094948;28;20035;-70
2022/01/31 03:59:23;;;;;;;26.80;6.70;;;;;;;4.42;100.00;100770.63;5095196;28;20032;-71
2022/01/31 04:01:48;;;;;;;27.15;6.93;;;;;;;4.40;100.00;100762.72;5095462;28;20024;-71
2022/01/31 04:04:14;;;;;;;25.05;6.18;;;;;;;4.40;100.00;100777.53;5094827;28;20497;-71
2022/01/31 04:06:40;;;;;;;27.83;6.38;;;;;;;4.52;100.00;100767.41;5096326;28;20031;-73
2022/01/31 04:09:06;;;;;;;26.35;6.03;;;;;;;4.63;100.00;100746.75;5094794;28;20024;-71
2022/01/31 04:11:31;;;;;;;25.42;6.05;;;;;;;4.67;100.00;100777.41;5095224;28;20081;-72
2022/01/31 04:13:57;;;;;;;24.63;6.22;;;;;;;4.69;100.00;100760.03;5095115;28;20044;-70
2022/01/31 04:16:22;;;;;;;31.23;5.93;;;;;;;4.66;100.00;100749.44;5094517;28;20428;-70
2022/01/31 04:18:47;;;;;;;27.17;5.65;;;;;;;4.66;100.00;100752.06;5094468;28;20028;-71
2022/01/31 04:21:13;;;;;;;23.73;4.90;;;;;;;4.82;100.00;100741.19;5094715;28;20387;-70
2022/01/31 04:23:39;;;;;;;25.33;5.15;;;;;;;4.78;100.00;100754.16;5094881;28;20042;-71
2022/01/31 04:26:22;;;;;;;25.23;4.82;;;;;;;4.76;100.00;100730.53;5094732;28;20020;-71
2022/01/31 04:29:01;;;;;;;27.13;5.00;;;;;;;4.80;100.00;100734.13;5092468;28;20490;-71
2022/01/31 04:31:38;;;;;;;26.92;5.05;;;;;;;4.75;100.00;100740.94;5094945;28;20378;-71
2022/01/31 04:34:04;;;;;;;26.42;5.28;;;;;;;4.77;100.00;100753.25;5094495;28;20020;-72
2022/01/31 04:36:29;;;;;;;24.02;4.32;;;;;;;4.70;100.00;100746.06;5094796;28;20024;-71
2022/01/31 04:38:54;;;;;;;24.98;4.60;;;;;;;4.77;100.00;100736.66;5094212;28;20107;-71
2022/01/31 04:41:20;;;;;;;22.30;4.28;;;;;;;4.77;100.00;100721.81;5094318;28;20038;-71
2022/01/31 04:43:49;;;;;;;24.55;4.50;;;;;;;4.76;100.00;100738.41;5094288;28;20031;-72
2022/01/31 04:46:16;;;;;;;24.58;4.43;;;;;;;4.74;100.00;100741.81;5094214;28;20024;-72
2022/01/31 04:48:43;;;;;;;24.13;4.43;;;;;;;4.74;100.00;100740.06;5094134;28;20027;-73
2022/01/31 04:51:09;;;;;;;23.17;4.32;;;;;;;4.70;100.00;100746.06;5094211;28;20024;-72
2022/01/31 04:53:35;;;;;;;27.98;4.85;;;;;;;4.77;100.00;100734.03;5093894;28;20466;-71
2022/01/31 04:56:00;;;;;;;24.05;4.70;;;;;;;4.72;100.00;100745.28;5094886;28;20024;-71
2022/01/31 04:58:26;;;;;;;24.25;4.18;;;;;;;4.80;100.00;100737.59;5093700;28;20039;-72
2022/01/31 05:00:51;;;;;;;22.45;3.90;;;;;;;4.79;100.00;100725.38;5092329;28;20036;-71
2022/01/31 05:03:19;;;;;;;27.05;4.38;;;;;;;4.77;100.00;100740.16;5094022;28;20028;-71
2022/01/31 05:05:45;;;;;;;23.58;3.88;;;;;;;4.84;100.00;100722.88;5093329;28;20027;-71
2022/01/31 05:08:11;;;;;;;26.13;4.05;;;;;;;4.81;100.00;100733.28;5093688;28;20026;-72
2022/01/31 05:10:43;;;;;;;25.92;4.57;;;;;;;4.81;100.00;100728.91;5094373;28;20024;-72
2022/01/31 05:13:09;;;;;;;27.02;4.72;;;;;;;4.77;100.00;100726.19;5090334;28;20126;-72
2022/01/31 05:15:34;;;;;;;23.20;3.70;;;;;;;4.79;100.00;100720.16;5094099;28;20107;-71
2022/01/31 05:17:59;;;;;;;22.27;3.60;;;;;;;4.83;100.00;100708.00;5093189;28;20031;-72
2022/01/31 05:20:25;;;;;;;21.65;3.83;;;;;;;4.82;100.00;100714.06;5093952;28;20024;-72
2022/01/31 05:22:50;;;;;;;22.70;4.03;;;;;;;4.89;100.00;100690.72;5093614;28;20025;-72
2022/01/31 05:25:16;;;;;;;25.15;4.70;;;;;;;4.83;100.00;100698.41;5093726;28;20032;-72
2022/01/31 05:27:41;;;;;;;22.67;4.30;;;;;;;4.83;100.00;100701.00;5091921;28;20115;-71
2022/01/31 05:30:07;;;;;;;22.42;4.20;;;;;;;4.84;100.00;100712.41;5093402;28;20099;-72
2022/01/31 05:32:33;;;;;;;21.50;4.07;;;;;;;4.93;100.00;100706.50;5092173;28;20115;-71
2022/01/31 05:35:01;;;;;;;24.05;4.30;;;;;;;4.85;100.00;100683.63;5091165;28;20381;-73
2022/01/31 05:37:26;;;;;;;23.00;4.15;;;;;;;4.90;100.00;100678.50;5092926;28;20020;-72
2022/01/31 05:39:51;;;;;;;25.42;3.80;;;;;;;4.83;100.00;100680.06;5093429;28;20031;-72
2022/01/31 05:42:17;;;;;;;25.00;4.38;;;;;;;4.84;100.00;100668.75;5092822;28;20020;-72
2022/01/31 05:44:46;;;;;;;26.50;4.07;;;;;;;4.81;100.00;100666.06;5093532;28;21076;-72
2022/01/31 05:47:12;;;;;;;30.10;4.18;;;;;;;4.76;100.00;100674.63;5092723;28;20098;-72
2022/01/31 05:49:38;;;;;;;22.73;3.78;;;;;;;4.63;100.00;100648.16;5093049;28;20020;-72
2022/01/31 05:52:05;;;;;;;23.25;4.38;;;;;;;4.64;100.00;100652.53;5093317;28;20028;-71
2022/01/31 05:54:36;;;;;;;27.08;4.05;;;;;;;4.40;100.00;100650.19;5092654;28;20031;-72
2022/01/31 05:57:02;;;;;;;25.48;4.47;;;;;;;4.30;100.00;100677.81;5092337;28;20028;-72
2022/01/31 05:59:28;;;;;;;26.58;4.45;;;;;;;4.23;100.00;100686.34;5093307;28;20042;-72
2022/01/31 06:01:54;;;;;;;23.30;4.20;;;;;;;4.17;100.00;100694.03;5092929;28;20110;-72
2022/01/31 06:04:20;;;;;;;26.15;4.75;;;;;;;4.03;100.00;100703.22;5092924;28;20028;-71
2022/01/31 06:06:45;;;;;;;26.55;4.90;;;;;;;3.87;100.00;100722.81;5092581;28;20023;-72
2022/01/31 06:09:11;;;;;;;25.48;4.68;;;;;;;3.86;100.00;100701.00;5092730;28;20024;-72
2022/01/31 06:11:36;;;;;;;22.75;4.28;;;;;;;3.76;100.00;100705.06;5093292;28;20024;-72
2022/01/31 06:14:03;;;;;;;23.25;4.43;;;;;;;3.56;100.00;100708.81;5092755;28;20040;-75
2022/01/31 06:16:29;;;;;;;25.60;4.78;;;;;;;3.59;100.00;100706.28;5092085;28;20027;-76
2022/01/31 06:18:55;;;;;;;23.13;4.60;;;;;;;3.62;100.00;100693.31;5091835;28;20044;-77
2022/01/31 06:21:21;;;;;;;21.95;4.32;;;;;;;3.54;100.00;100702.63;5092745;28;20035;-76
2022/01/31 06:23:46;;;;;;;24.83;4.90;;;;;;;3.45;100.00;100698.91;5092579;28;20028;-76
2022/01/31 06:26:12;;;;;;;22.92;4.55;;;;;;;3.57;100.00;100687.03;5092627;28;20463;-75
2022/01/31 06:28:37;;;;;;;28.05;5.18;;;;;;;3.48;100.00;100719.94;5091855;28;20020;-73
2022/01/31 06:31:03;;;;;;;28.02;5.03;;;;;;;3.52;100.00;100678.19;5091880;28;20562;-76
2022/01/31 06:33:28;;;;;;;22.90;4.15;;;;;;;3.56;100.00;100693.13;5092427;28;20501;-75
2022/01/31 06:35:54;;;;;;;25.77;4.40;;;;;;;3.67;100.00;100691.75;5092787;28;20020;-75
2022/01/31 06:38:21;;;;;;;24.10;4.78;;;;;;;3.57;100.00;100700.13;5091957;28;20028;-72
2022/01/31 06:40:46;;;;;;;23.95;5.28;;;;;;;3.56;100.00;100696.63;5092362;28;20431;-72
2022/01/31 06:43:12;;;;;;;25.20;5.00;;;;;;;3.63;100.00;100698.59;5092019;28;20119;-74
2022/01/31 06:45:37;;;;;;;23.67;4.35;;;;;;;3.55;100.00;100697.47;5092244;28;20055;-71
2022/01/31 06:48:02;;;;;;;27.02;5.15;;;;;;;3.62;100.00;100696.81;5091793;28;20114;-76
2022/01/31 06:50:28;;;;;;;23.77;4.07;;;;;;;3.64;100.00;100691.63;5091935;28;20055;-75
2022/01/31 06:52:56;;;;;;;26.27;4.60;;;;;;;3.61;100.00;100695.06;5091828;28;20028;-78
2022/01/31 06:55:21;;;;;;;24.15;4.88;;;;;;;3.63;100.00;100685.50;5089916;28;20062;-74
2022/01/31 06:57:48;;;;;;;24.40;5.15;;;;;;;3.67;100.00;100689.13;5091316;28;20063;-76
2022/01/31 07:00:17;;;;;;;25.33;4.80;;;;;;;3.66;100.00;100688.22;5091870;28;20024;-75
2022/01/31 07:02:43;;;;;;;27.42;5.25;;;;;;;3.67;100.00;100699.59;5091956;28;20103;-73
2022/01/31 07:05:08;;;;;;;26.27;4.88;;;;;;;3.57;100.00;100702.72;5091975;28;20162;-73
2022/01/31 07:07:34;;;;;;;28.30;4.97;;;;;;;3.56;100.00;100700.97;5089770;28;20023;-75
2022/01/31 07:10:02;;;;;;;25.45;4.80;;;;;;;3.55;100.00;100705.28;5091686;28;20027;-74
2022/01/31 07:12:37;;;;;;;27.63;5.18;;;;;;;3.56;100.00;100707.06;5090253;28;20059;-73
2022/01/31 07:15:05;;;;;;;25.48;4.68;;;;;;;3.63;100.00;100697.72;5091384;28;20495;-73
2022/01/31 07:17:30;;;;;;;27.27;5.28;;;;;;;3.66;100.00;100693.44;5090665;28;20039;-77
2022/01/31 07:19:56;;;;;;;26.02;4.72;;;;;;;3.61;100.00;100670.63;5091494;28;20077;-73
2022/01/31 07:22:28;;;;;;;28.35;5.28;;;;;;;3.57;100.00;100672.25;5091460;28;20494;-74
2022/01/31 07:25:21;;;;;;;23.08;4.50;;;;;;;3.57;100.00;100677.50;5090370;28;20042;-75
2022/01/31 07:27:41;;;;;;;26.73;5.10;;;;;;;3.67;100.00;100674.31;5087919;28;20482;-74
2022/01/31 07:30:07;;;;;;;25.75;4.97;;;;;;;3.75;100.00;100685.00;5091049;28;20024;-76
2022/01/31 07:32:33;;;;;;;27.00;5.47;;;;;;;3.68;100.00;100667.34;5091048;28;20226;-75
2022/01/31 07:34:58;;;;;;;26.63;5.30;;;;;;;3.73;100.00;100665.78;5088605;28;20016;-78
2022/01/31 07:37:25;;;;;;;29.20;6.05;;;;;;;3.79;100.00;100702.53;5090796;28;20470;-74
2022/01/31 07:39:50;;;;;;;28.90;5.50;;;;;;;3.73;100.00;100688.38;5090673;28;20024;-74
2022/01/31 07:42:17;;;;;;;29.88;6.32;;;;;;;3.56;100.00;100698.38;5090870;28;20028;-74
2022/01/31 07:44:42;;;;;;;29.55;5.68;;;;;;;3.53;100.00;100703.50;5091552;28;20111;-76
2022/01/31 07:47:08;;;;;;;23.58;4.47;;;;;;;3.59;100.00;100691.47;5090623;28;20115;-73
2022/01/31 07:49:33;;;;;;;32.95;5.68;;;;;;;3.47;100.00;100714.66;5091296;28;20028;-74
2022/01/31 07:51:59;;;;;;;29.67;5.90;;;;;;;3.55;100.00;100702.69;5091752;28;20032;-73
2022/01/31 07:54:25;;;;;;;32.55;6.20;;;;;;;3.37;100.00;100718.69;5090806;28;20119;-74
2022/01/31 07:56:51;;;;;;;30.27;5.63;;;;;;;3.46;100.00;100715.47;5090914;28;20096;-73
2022/01/31 07:59:16;;;;;;;30.10;5.80;;;;;;;3.53;100.00;100695.66;5091252;28;20115;-74
2022/01/31 08:01:41;;;;;;;30.48;5.82;;;;;;;3.50;100.00;100712.13;5091002;28;20028;-73
2022/01/31 08:04:07;;;;;;;30.65;5.72;;;;;;;3.52;100.00;100713.06;5091476;28;20028;-73
2022/01/31 08:06:33;;;;;;;30.02;5.10;;;;;;;3.65;100.00;100704.72;5090558;28;20024;-73
2022/01/31 08:08:58;;;;;;;30.33;5.45;;;;;;;3.65;100.00;100704.72;5090114;28;20043;-72
2022/01/31 08:11:30;;;;;;;27.77;5.05;;;;;;;3.66;100.00;100721.34;5090998;28;20375;-73
2022/01/31 08:13:59;;;;;;;26.45;5.00;;;;;;;3.73;100.00;100710.22;5090572;28;20036;-73
2022/01/31 08:16:25;;;;;;;26.98;4.85;;;;;;;3.79;100.00;100694.69;5089298;28;20028;-73
2022/01/31 08:18:50;;;;;;;31.17;5.55;;;;;;;3.76;100.00;100699.84;5090264;28;20028;-72
2022/01/31 08:21:16;;;;;;;25.02;4.30;;;;;;;3.80;100.00;100696.47;5091143;28;20336;-72
2022/01/31 08:23:42;;;;;;;33.22;5.70;;;;;;;3.76;100.00;100733.84;5090999;28;20067;-72
2022/01/31 08:26:12;;;;;;;28.02;5.38;;;;;;;3.72;100.00;100703.22;5091444;28;20039;-73
2022/01/31 08:28:41;;;;;;;30.98;5.75;;;;;;;3.72;100.00;100736.31;5090409;28;20083;-73
2022/01/31 08:31:13;;;;;;;32.88;5.53;;;;;;;3.58;100.00;100725.41;5090013;28;20360;-73
2022/01/31 08:33:44;;;;;;;30.33;5.70;;;;;;;3.59;100.00;100721.97;5090641;28;20020;-73
2022/01/31 08:36:10;;;;;;;26.67;4.90;;;;;;;3.72;100.00;100744.16;5091284;28;20020;-73
2022/01/31 08:38:39;;;;;;;31.15;6.20;;;;;;;3.61;100.00;100730.75;5089687;28;20471;-73
2022/01/31 08:41:05;;;;;;;27.95;4.40;;;;;;;3.74;100.00;100727.69;5094284;28;20046;-72
2022/01/31 08:43:32;;;;;;;34.08;5.50;;;;;;;3.64;100.00;100741.28;5094383;28;20032;-74
2022/01/31 08:45:57;;;;;;;31.38;5.70;;;;;;;3.71;100.00;100747.59;5093351;28;20028;-73
2022/01/31 08:48:24;;;;;;;33.03;5.47;;;;;;;3.71;100.00;100734.53;5094054;28;20028;-73
2022/01/31 08:50:50;;;;;;;31.40;5.95;;;;;;;3.67;100.00;100741.41;5094549;28;20387;-73
2022/01/31 08:53:16;;;;;;;35.70;6.47;;;;;;;3.88;100.00;100725.47;5094117;28;20031;-74
2022/01/31 08:55:51;;;;;;;31.17;5.35;;;;;;;3.95;100.00;100735.28;5093925;28;20032;-74
2022/01/31 08:58:18;;;;;;;31.10;5.18;;;;;;;4.01;100.00;100742.41;5094003;28;20534;-75
2022/01/31 09:00:48;;;;;;;30.50;5.55;;;;;;;4.01;100.00;100758.13;5094367;28;20063;-73
2022/01/31 09:05:39;;;;;;;32.88;5.97;;;;;;;4.00;100.00;100767.69;5094397;28;20445;-73
2022/01/31 09:08:05;;;;;;;37.03;6.18;;;;;;;3.97;100.00;100761.47;5093269;28;20031;-74
2022/01/31 09:10:30;;;;;;;34.28;5.60;;;;;;;3.83;100.00;100775.03;5094409;28;20403;-73
2022/01/31 09:12:56;;;;;;;31.38;5.18;;;;;;;3.96;100.00;100759.69;5093848;28;20032;-72
2022/01/31 09:15:21;;;;;;;30.90;5.20;;;;;;;3.98;100.00;100773.72;5093588;28;20544;-74
2022/01/31 09:17:47;;;;;;;28.52;5.10;;;;;;;3.96;100.00;100757.97;5093435;28;20028;-73
2022/01/31 09:20:12;;;;;;;34.28;5.95;;;;;;;3.93;100.00;100765.75;5093829;28;20081;-72
2022/01/31 09:22:38;;;;;;;27.77;4.90;;;;;;;3.96;100.00;100775.38;5090844;28;20027;-72
2022/01/31 09:25:04;;;;;;;30.35;5.18;;;;;;;3.95;100.00;100763.16;5093678;28;20016;-73
2022/01/31 09:27:29;;;;;;;29.90;5.40;;;;;;;3.96;100.00;100750.13;5093542;28;20035;-72
2022/01/31 09:29:55;;;;;;;28.40;4.72;;;;;;;4.08;100.00;100749.59;5093045;28;20080;-74
2022/01/31 09:32:23;;;;;;;26.73;4.93;;;;;;;4.14;100.00;100734.06;5088150;28;20040;-75
2022/01/31 09:34:49;;;;;;;32.75;6.03;;;;;;;4.13;100.00;100761.06;5093173;28;20020;-74
2022/01/31 09:37:15;;;;;;;29.50;5.72;;;;;;;4.16;100.00;100763.78;5093130;28;20475;-72
2022/01/31 09:39:42;;;;;;;28.27;5.45;;;;;;;4.27;100.00;100755.38;5093904;28;20421;-73
2022/01/31 09:42:14;;;;;;;33.55;5.72;;;;;;;4.17;100.00;100778.66;5093763;28;20402;-72
2022/01/31 09:47:21;;;;;;;33.53;5.75;;;;;;;4.14;100.00;100778.56;5092673;28;20416;-73
2022/01/31 09:49:47;;;;;;;29.40;5.72;;;;;;;4.18;100.00;100792.63;5090698;28;20454;-74
2022/01/31 09:52:14;;;;;;;31.45;5.65;;;;;;;4.08;100.00;100814.09;5092801;28;20102;-71
2022/01/31 09:54:39;;;;;;;31.35;6.10;;;;;;;4.04;100.00;100815.75;5092952;28;20028;-71
2022/01/31 09:57:06;;;;;;;28.83;5.13;;;;;;;4.06;100.00;100811.44;5092481;28;20027;-71
2022/01/31 09:59:31;;;;;;;33.20;6.03;;;;;;;3.97;100.00;100811.19;5093361;28;20387;-71
2022/01/31 10:01:58;;;;;;;31.13;6.38;;;;;;;4.02;100.00;100827.91;5092831;28;20024;-71
2022/01/31 10:04:28;;;;;;;34.83;6.18;;;;;;;3.92;100.00;100833.72;5092810;28;20077;-72
2022/01/31 10:06:56;;;;;;;31.60;5.72;;;;;;;3.99;100.00;100838.25;5092642;28;20028;-73
2022/01/31 10:09:24;;;;;;;30.33;5.90;;;;;;;3.97;100.00;100853.03;5092761;28;20520;-72
2022/01/31 10:11:51;;;;;;;37.40;7.28;;;;;;;3.93;100.00;100818.06;5092659;28;20028;-71
2022/01/31 10:17:28;;;;;;;31.67;6.00;;;;;;;4.17;100.00;100828.38;5091821;28;20062;-72
2022/01/31 10:19:56;;;;;;;36.45;6.60;;;;;;;4.09;100.00;100823.75;5090216;28;20035;-74
2022/01/31 10:22:27;;;;;;;36.67;6.38;;;;;;;4.22;100.00;100840.69;5092495;28;20030;-74
2022/01/31 10:24:54;;;;;;;31.15;6.38;;;;;;;4.16;100.00;100854.47;5092320;28;20032;-74
2022/01/31 10:27:29;;;;;;;39.70;7.38;;;;;;;4.15;100.00;100891.94;5090814;28;20486;-72
2022/01/31 10:30:11;;;;;;;38.55;7.60;;;;;;;4.29;100.00;100895.00;5092575;28;20020;-71
2022/01/31 10:32:40;;;;;;;38.07;7.37;;;;;;;4.34;100.00;100872.50;5091447;28;20043;-73
2022/01/31 10:35:11;;;;;;;36.30;6.50;;;;;;;4.37;100.00;100862.13;5092500;28;20656;-72
2022/01/31 10:37:40;;;;;;;35.38;6.82;;;;;;;4.41;100.00;100879.66;5091995;28;20131;-73
2022/01/31 10:56:46;;;;;;;32.58;5.82;;;;;;;4.65;100.00;100899.59;5049283;28;20098;-74
2022/01/31 10:59:16;;;;;;;34.03;6.88;;;;;;;4.58;100.00;100903.75;5049211;28;20049;-74
2022/01/31 11:01:43;;;;;;;34.40;6.60;;;;;;;4.57;100.00;100906.31;5049537;28;20052;-74
2022/01/31 11:04:11;;;;;;;33.60;6.15;;;;;;;4.56;100.00;100904.53;5049096;28;20039;-73
2022/01/31 11:06:39;;;;;;;34.67;6.22;;;;;;;4.49;100.00;100916.56;5049114;28;20032;-73
2022/01/31 11:09:11;;;;;;;32.58;6.10;;;;;;;4.45;100.00;100892.00;5048705;28;20037;-74
2022/01/31 11:11:38;;;;;;;32.75;6.38;;;;;;;4.42;100.00;100905.00;5049334;28;20524;-73
2022/01/31 11:14:05;;;;;;;32.83;6.93;;;;;;;4.39;100.00;100930.22;5049038;28;20052;-74
2022/01/31 11:16:31;;;;;;;34.05;7.05;;;;;;;4.44;100.00;100933.84;5049461;28;20104;-74
2022/01/31 11:19:02;;;;;;;36.95;7.43;;;;;;;4.45;100.00;100928.66;5031784;28;20029;-74
2022/01/31 11:21:31;;;;;;;36.47;6.35;;;;;;;4.41;100.00;100939.00;5030169;28;20059;-73
2022/01/31 11:24:03;;;;;;;32.58;6.13;;;;;;;4.51;100.00;100928.88;5049270;28;20033;-74
2022/01/31 11:26:40;;;;;;;35.40;6.72;;;;;;;4.51;100.00;100939.34;5049075;28;20103;-74
2022/01/31 11:29:07;;;;;;;32.38;7.13;;;;;;;4.50;100.00;100911.38;5047441;28;20039;-74
2022/01/31 11:31:37;;;;;;;33.47;6.60;;;;;;;4.56;100.00;100904.53;5048656;28;20092;-73
2022/01/31 11:34:05;;;;;;;33.67;6.03;;;;;;;4.47;100.00;100919.13;5077247;28;20043;-74
2022/01/31 11:36:33;;;;;;;35.72;7.25;;;;;;;4.44;100.00;100934.75;5091610;28;20073;-74
2022/01/31 11:38:59;;;;;;;34.08;6.63;;;;;;;4.51;100.00;100944.56;5090660;28;20028;-74
2022/01/31 11:41:26;;;;;;;33.30;6.68;;;;;;;4.44;100.00;100937.38;5091407;28;20024;-72